Time;durP1;ratioP1;P1;durP2;ratioP2;P2;SDS_P1;SDS_P2;PMS_P1;PMS_P2;Temp;Humidity;BMP_temperature;BMP_pressure;BME280_temperature;BME280_humidity;BME280_pressure;Samples;Min_cycle;Max_cycle;Signal;HPM_P1;HPM_P2
2020/12/22 00:01:22;;;;;;;14.00;12.50;;;7.10;99.90;;;;;;5129091;27;20470;-76
2020/12/22 00:03:48;;;;;;;13.80;12.40;;;7.10;99.90;;;;;;5129191;27;20466;-77
2020/12/22 00:06:22;;;;;;;16.93;12.80;;;7.10;99.90;;;;;;5139261;27;20470;-78
2020/12/22 00:08:51;;;;;;;14.20;12.73;;;7.10;99.90;;;;;;5132968;27;20438;-76
2020/12/22 00:11:20;;;;;;;16.13;13.00;;;7.10;99.90;;;;;;5127908;27;20908;-77
2020/12/22 00:13:50;;;;;;;14.67;12.67;;;7.10;99.90;;;;;;5128868;27;20532;-76
2020/12/22 00:16:17;;;;;;;14.53;13.00;;;7.10;99.90;;;;;;5128565;27;21028;-77
2020/12/22 00:18:43;;;;;;;16.20;13.10;;;7.10;99.90;;;;;;5133973;27;20441;-77
2020/12/22 00:21:10;;;;;;;15.47;13.87;;;7.10;99.90;;;;;;5131118;27;20613;-76
2020/12/22 00:23:37;;;;;;;13.93;12.40;;;7.10;99.90;;;;;;5126131;27;20534;-76
2020/12/22 00:26:04;;;;;;;14.83;13.20;;;7.10;99.90;;;;;;5130670;27;20456;-77
2020/12/22 00:28:30;;;;;;;17.90;13.03;;;7.20;99.90;;;;;;5128864;27;20491;-76
2020/12/22 00:30:56;;;;;;;14.23;12.77;;;7.10;99.90;;;;;;5127372;27;20469;-76
2020/12/22 00:33:23;;;;;;;14.47;12.97;;;7.10;99.90;;;;;;5126363;27;20481;-77
2020/12/22 00:35:49;;;;;;;15.40;13.80;;;7.20;99.90;;;;;;5130963;27;20446;-76
2020/12/22 00:38:16;;;;;;;15.17;12.80;;;7.10;99.90;;;;;;5129757;27;20968;-76
2020/12/22 00:40:43;;;;;;;13.80;12.40;;;7.10;99.90;;;;;;5134239;27;20461;-76
2020/12/22 00:43:09;;;;;;;14.00;12.50;;;7.10;99.90;;;;;;5132766;27;20967;-77
2020/12/22 00:45:36;;;;;;;16.10;14.40;;;7.10;99.90;;;;;;5134631;27;20474;-76
2020/12/22 00:48:02;;;;;;;14.63;13.00;;;7.10;99.90;;;;;;5120045;27;20450;-76
2020/12/22 00:50:29;;;;;;;15.10;13.23;;;7.10;99.90;;;;;;5131494;27;20472;-77
2020/12/22 00:52:55;;;;;;;16.23;14.53;;;7.20;99.90;;;;;;5127712;27;20454;-75
2020/12/22 00:55:21;;;;;;;15.33;13.73;;;7.10;99.90;;;;;;5126500;27;20454;-77
2020/12/22 00:57:52;;;;;;;14.60;13.10;;;7.20;99.90;;;;;;5127525;27;20445;-75
2020/12/22 01:00:20;;;;;;;18.93;14.70;;;7.20;99.90;;;;;;5127745;27;20800;-76
2020/12/22 01:02:47;;;;;;;15.10;13.70;;;7.20;99.90;;;;;;5128374;27;20858;-76
2020/12/22 01:05:14;;;;;;;17.03;15.23;;;7.20;99.90;;;;;;5125842;27;20474;-76
2020/12/22 01:07:40;;;;;;;16.87;14.20;;;7.20;99.90;;;;;;5125622;27;20453;-77
2020/12/22 01:10:07;;;;;;;16.97;15.17;;;7.30;99.90;;;;;;5128354;27;20494;-76
2020/12/22 01:12:33;;;;;;;16.90;14.50;;;7.30;99.90;;;;;;5128966;27;20503;-77
2020/12/22 01:15:01;;;;;;;15.03;13.43;;;7.30;99.90;;;;;;5126552;27;20456;-76
2020/12/22 01:17:27;;;;;;;17.40;15.33;;;7.30;99.90;;;;;;5129906;27;20798;-77
2020/12/22 01:19:56;;;;;;;17.07;15.10;;;7.20;99.90;;;;;;5127416;27;20464;-76
2020/12/22 01:22:23;;;;;;;16.30;14.60;;;7.30;99.90;;;;;;5130435;27;20441;-77
2020/12/22 01:24:49;;;;;;;16.67;14.80;;;7.30;99.90;;;;;;5130251;27;20453;-77
2020/12/22 01:27:15;;;;;;;17.47;14.67;;;7.30;99.90;;;;;;5135963;27;20449;-77
2020/12/22 01:29:42;;;;;;;16.80;13.97;;;7.30;99.90;;;;;;5132976;27;20497;-76
2020/12/22 01:32:09;;;;;;;17.67;15.60;;;7.30;99.90;;;;;;5132503;27;20474;-77
2020/12/22 01:34:35;;;;;;;18.70;15.57;;;7.30;99.90;;;;;;5130294;27;20482;-75
2020/12/22 01:37:02;;;;;;;16.93;14.90;;;7.30;99.90;;;;;;5133088;27;20522;-76
2020/12/22 01:39:28;;;;;;;18.50;15.53;;;7.30;99.90;;;;;;5131530;27;20464;-75
2020/12/22 01:41:56;;;;;;;17.10;15.13;;;7.30;99.90;;;;;;5137609;27;20445;-75
2020/12/22 01:44:23;;;;;;;17.97;15.27;;;7.30;99.90;;;;;;5129046;27;20454;-75
2020/12/22 01:46:50;;;;;;;19.73;15.60;;;7.30;99.90;;;;;;5131187;27;20486;-75
2020/12/22 01:49:20;;;;;;;16.30;14.13;;;7.30;99.90;;;;;;5130787;27;20501;-76
2020/12/22 01:51:48;;;;;;;20.10;14.90;;;7.30;99.90;;;;;;5127538;27;20458;-76
2020/12/22 01:54:19;;;;;;;16.47;14.80;;;7.40;99.90;;;;;;5128701;27;20462;-76
2020/12/22 01:56:49;;;;;;;17.07;15.27;;;7.40;99.90;;;;;;5129476;27;20555;-76
2020/12/22 01:59:17;;;;;;;17.10;15.23;;;7.40;99.90;;;;;;5130154;27;20450;-76
2020/12/22 02:01:46;;;;;;;17.83;15.83;;;7.40;99.90;;;;;;5122708;27;20477;-76
2020/12/22 02:04:13;;;;;;;16.40;14.43;;;7.40;99.90;;;;;;5128448;27;20442;-75
2020/12/22 02:06:41;;;;;;;18.30;14.00;;;7.40;99.90;;;;;;5126565;27;20536;-74
2020/12/22 02:09:09;;;;;;;16.90;14.80;;;7.40;99.90;;;;;;5127783;27;20442;-73
2020/12/22 02:11:38;;;;;;;19.40;17.03;;;7.40;99.90;;;;;;5123631;27;20445;-73
2020/12/22 02:14:05;;;;;;;19.00;16.07;;;7.40;99.90;;;;;;5125820;27;20579;-73
2020/12/22 02:16:32;;;;;;;17.90;16.17;;;7.40;99.90;;;;;;5125776;27;20482;-73
2020/12/22 02:18:58;;;;;;;17.07;14.60;;;7.40;99.90;;;;;;5127955;27;20483;-73
2020/12/22 02:21:26;;;;;;;17.13;15.33;;;7.40;99.90;;;;;;5126268;27;20526;-73
2020/12/22 02:23:53;;;;;;;19.93;16.33;;;7.40;99.90;;;;;;5129859;27;20544;-73
2020/12/22 02:26:20;;;;;;;20.77;17.30;;;7.40;99.90;;;;;;5126616;27;20462;-73
2020/12/22 02:28:47;;;;;;;20.57;17.57;;;7.40;99.90;;;;;;5129414;27;20457;-74
2020/12/22 02:31:14;;;;;;;18.00;16.10;;;7.40;99.90;;;;;;5116834;27;20466;-75
2020/12/22 02:33:42;;;;;;;19.40;16.90;;;7.40;99.90;;;;;;5128762;27;20473;-75
2020/12/22 02:36:10;;;;;;;19.87;17.57;;;7.40;99.90;;;;;;5121107;27;20832;-74
2020/12/22 02:38:37;;;;;;;20.17;17.07;;;7.50;99.90;;;;;;5125798;27;20536;-74
2020/12/22 02:41:04;;;;;;;20.70;17.33;;;7.50;99.90;;;;;;5123920;27;20439;-74
2020/12/22 02:43:35;;;;;;;20.43;17.10;;;7.50;99.90;;;;;;5122755;27;20474;-73
2020/12/22 02:46:01;;;;;;;22.47;17.80;;;7.50;99.90;;;;;;5130473;27;20826;-75
2020/12/22 02:48:28;;;;;;;20.50;18.40;;;7.60;99.90;;;;;;5127575;27;20507;-76
2020/12/22 02:51:06;;;;;;;19.47;17.37;;;7.60;99.90;;;;;;5127510;27;21022;-72
2020/12/22 02:53:32;;;;;;;19.30;17.30;;;7.60;99.90;;;;;;5128393;27;20453;-74
2020/12/22 02:56:02;;;;;;;21.43;17.20;;;7.60;99.90;;;;;;5128763;27;21024;-72
2020/12/22 02:58:29;;;;;;;20.13;17.77;;;7.70;99.90;;;;;;5123041;27;20497;-73
2020/12/22 03:00:55;;;;;;;18.67;15.63;;;7.70;99.90;;;;;;5125798;27;20534;-73
2020/12/22 03:03:22;;;;;;;21.63;17.40;;;7.70;99.90;;;;;;5126951;27;20457;-73
2020/12/22 03:05:48;;;;;;;20.00;17.50;;;7.70;99.90;;;;;;5129686;27;20453;-73
2020/12/22 03:08:14;;;;;;;20.17;17.23;;;7.70;99.90;;;;;;5126648;27;20992;-72
2020/12/22 03:10:41;;;;;;;21.27;17.20;;;7.70;99.90;;;;;;5128186;27;20918;-74
2020/12/22 03:13:08;;;;;;;19.80;17.10;;;7.80;99.90;;;;;;5123828;27;20609;-75
2020/12/22 03:15:36;;;;;;;19.60;17.50;;;7.80;99.90;;;;;;5129354;27;20461;-75
2020/12/22 03:18:04;;;;;;;21.37;18.27;;;7.80;99.90;;;;;;5130966;27;20450;-77
2020/12/22 03:20:30;;;;;;;21.93;19.53;;;7.80;99.90;;;;;;5132374;27;20510;-75
2020/12/22 03:22:57;;;;;;;23.07;18.10;;;7.80;99.90;;;;;;5133184;27;20502;-74
2020/12/22 03:25:24;;;;;;;24.90;18.60;;;7.80;99.90;;;;;;5131871;27;20954;-74
2020/12/22 03:27:50;;;;;;;22.20;18.13;;;7.90;99.90;;;;;;5133216;27;20557;-74
2020/12/22 03:30:18;;;;;;;24.23;18.60;;;7.90;99.90;;;;;;5130004;27;20462;-75
2020/12/22 03:32:44;;;;;;;20.67;17.40;;;7.90;99.90;;;;;;5133651;27;20470;-74
2020/12/22 03:35:11;;;;;;;22.07;17.57;;;7.90;99.90;;;;;;5130920;27;20501;-74
2020/12/22 03:37:41;;;;;;;20.50;17.30;;;7.90;99.90;;;;;;5132496;27;20496;-74
2020/12/22 03:40:13;;;;;;;22.00;17.40;;;8.00;99.90;;;;;;5132830;27;20954;-74
2020/12/22 03:42:40;;;;;;;20.20;16.70;;;8.00;99.90;;;;;;5134277;27;20450;-74
2020/12/22 03:45:07;;;;;;;20.27;16.07;;;8.00;99.90;;;;;;5129965;27;20450;-74
2020/12/22 03:47:35;;;;;;;19.73;16.23;;;8.10;99.90;;;;;;5128141;27;20458;-75
2020/12/22 03:50:02;;;;;;;18.33;15.03;;;8.10;99.90;;;;;;5133580;27;20482;-73
2020/12/22 03:52:28;;;;;;;16.40;14.23;;;8.20;99.90;;;;;;5134602;27;20760;-74
2020/12/22 03:54:54;;;;;;;15.30;13.70;;;8.20;99.90;;;;;;5127761;27;21043;-74
2020/12/22 03:57:28;;;;;;;16.40;13.87;;;8.20;99.90;;;;;;5129854;27;20647;-74
2020/12/22 03:59:55;;;;;;;18.03;14.70;;;8.20;99.90;;;;;;5128205;27;20462;-77
2020/12/22 04:02:21;;;;;;;15.50;13.63;;;8.30;99.90;;;;;;5132329;27;20473;-74
2020/12/22 04:04:49;;;;;;;16.40;14.63;;;8.30;99.90;;;;;;5130495;27;20499;-74
2020/12/22 04:07:18;;;;;;;15.70;12.80;;;8.40;99.90;;;;;;5131393;27;20446;-74
2020/12/22 04:09:47;;;;;;;16.47;14.37;;;8.50;99.90;;;;;;5136450;27;20843;-73
2020/12/22 04:12:16;;;;;;;13.07;11.67;;;8.50;99.90;;;;;;5133504;27;20960;-73
2020/12/22 04:14:44;;;;;;;14.00;12.33;;;8.50;99.90;;;;;;5141847;27;20442;-74
2020/12/22 04:17:12;;;;;;;15.57;11.40;;;8.50;99.90;;;;;;5143552;27;20477;-74
2020/12/22 04:19:43;;;;;;;12.27;11.03;;;8.60;99.90;;;;;;5133193;27;20462;-75
2020/12/22 04:22:12;;;;;;;14.03;11.30;;;8.60;99.90;;;;;;5129485;27;20434;-73
2020/12/22 04:24:38;;;;;;;14.50;10.87;;;8.60;99.90;;;;;;5129806;27;20450;-75
2020/12/22 04:27:05;;;;;;;9.87;8.70;;;8.70;99.90;;;;;;5136127;27;20445;-74
2020/12/22 04:29:31;;;;;;;9.50;8.60;;;8.80;99.90;;;;;;5128307;27;20465;-74
2020/12/22 04:31:58;;;;;;;8.30;7.50;;;8.80;99.90;;;;;;5129899;27;20434;-74
2020/12/22 04:34:25;;;;;;;9.30;8.30;;;8.90;99.90;;;;;;5133981;27;20548;-73
2020/12/22 04:36:51;;;;;;;9.00;7.90;;;8.90;99.90;;;;;;5127097;27;20885;-73
2020/12/22 04:39:19;;;;;;;8.40;7.10;;;9.00;99.90;;;;;;5129239;27;20435;-73
2020/12/22 04:41:49;;;;;;;8.50;6.97;;;9.00;99.90;;;;;;5130398;27;20523;-74
2020/12/22 04:44:16;;;;;;;6.60;5.47;;;9.10;99.90;;;;;;5130587;27;20449;-74
2020/12/22 04:46:49;;;;;;;6.63;5.80;;;9.10;99.90;;;;;;5130560;27;20454;-74
2020/12/22 04:49:18;;;;;;;6.37;5.77;;;9.20;99.90;;;;;;5129466;27;20477;-75
2020/12/22 04:51:48;;;;;;;5.47;4.83;;;9.20;99.90;;;;;;5128365;27;20458;-78
2020/12/22 04:54:17;;;;;;;7.07;4.90;;;9.30;99.90;;;;;;5130173;27;20510;-75
2020/12/22 04:56:45;;;;;;;5.30;4.80;;;9.30;99.90;;;;;;5128435;27;20530;-75
2020/12/22 04:59:12;;;;;;;5.20;4.27;;;9.40;99.90;;;;;;5129450;27;20533;-73
2020/12/22 05:01:42;;;;;;;4.97;4.37;;;9.40;99.90;;;;;;5132342;27;20543;-73
2020/12/22 05:04:11;;;;;;;4.10;3.70;;;9.40;99.90;;;;;;5135321;27;20450;-75
2020/12/22 05:06:38;;;;;;;3.10;2.90;;;9.40;99.90;;;;;;5135864;27;20449;-74
2020/12/22 05:09:05;;;;;;;3.80;3.00;;;9.50;99.90;;;;;;5135269;27;20442;-73
2020/12/22 05:11:35;;;;;;;2.60;2.40;;;9.50;99.90;;;;;;5132760;27;20492;-74
2020/12/22 05:14:02;;;;;;;2.57;2.27;;;9.60;99.90;;;;;;5130103;27;20446;-74
2020/12/22 05:16:29;;;;;;;2.80;2.20;;;9.60;99.90;;;;;;5135810;27;20442;-75
2020/12/22 05:19:00;;;;;;;2.80;2.40;;;9.60;99.90;;;;;;5139695;27;20446;-74
2020/12/22 05:21:33;;;;;;;2.30;2.10;;;9.60;99.90;;;;;;5130738;27;20439;-74
2020/12/22 05:24:00;;;;;;;1.73;1.63;;;9.70;99.90;;;;;;5128688;27;20466;-74
2020/12/22 05:26:31;;;;;;;1.93;1.83;;;9.80;99.90;;;;;;5129910;27;20438;-75
2020/12/22 05:29:14;;;;;;;1.73;1.63;;;9.80;99.90;;;;;;5128404;27;20523;-74
2020/12/22 05:31:44;;;;;;;1.90;1.80;;;9.90;99.90;;;;;;5129414;27;20485;-74
2020/12/22 05:34:12;;;;;;;2.00;1.57;;;9.90;99.90;;;;;;5129518;27;20476;-74
2020/12/22 05:36:40;;;;;;;1.10;1.10;;;9.90;99.90;;;;;;5130625;27;20465;-74
2020/12/22 05:39:08;;;;;;;1.63;1.43;;;9.90;99.90;;;;;;5127027;27;20454;-74
2020/12/22 05:41:35;;;;;;;1.90;1.20;;;9.90;99.90;;;;;;5129716;27;20504;-73
2020/12/22 05:44:01;;;;;;;2.10;1.23;;;10.00;99.90;;;;;;5126517;27;20504;-76
2020/12/22 05:46:33;;;;;;;3.43;1.10;;;10.00;99.90;;;;;;5125571;27;20449;-74
2020/12/22 05:49:03;;;;;;;2.77;1.70;;;10.00;99.90;;;;;;5122501;27;21037;-75
2020/12/22 05:51:31;;;;;;;2.43;1.50;;;10.00;99.90;;;;;;5129284;27;20484;-73
2020/12/22 05:54:03;;;;;;;1.50;1.30;;;10.10;99.90;;;;;;5126497;27;20453;-74
2020/12/22 05:56:29;;;;;;;1.20;1.10;;;10.10;99.90;;;;;;5128881;27;20459;-73
2020/12/22 05:58:56;;;;;;;1.03;1.00;;;10.10;99.90;;;;;;5131126;27;20457;-73
2020/12/22 06:01:31;;;;;;;1.43;0.93;;;10.10;99.90;;;;;;5126651;27;20523;-76
2020/12/22 06:03:58;;;;;;;2.03;1.10;;;10.10;99.90;;;;;;5130689;27;20874;-73
2020/12/22 06:06:29;;;;;;;0.80;0.80;;;10.10;99.90;;;;;;5127387;27;20458;-74
2020/12/22 06:08:56;;;;;;;1.00;0.80;;;10.10;99.90;;;;;;5128255;27;20974;-74
2020/12/22 06:11:28;;;;;;;1.03;1.00;;;10.10;99.90;;;;;;5127403;27;20474;-73
2020/12/22 06:13:54;;;;;;;0.83;0.83;;;10.20;99.90;;;;;;5127863;27;20430;-73
2020/12/22 06:16:22;;;;;;;2.90;1.00;;;10.20;99.90;;;;;;5122565;27;20442;-73
2020/12/22 06:18:50;;;;;;;0.93;0.93;;;10.20;99.90;;;;;;5125878;27;21839;-74
2020/12/22 06:21:18;;;;;;;1.53;1.43;;;10.20;99.90;;;;;;5125562;27;20454;-75
2020/12/22 06:23:46;;;;;;;1.97;1.10;;;10.20;99.90;;;;;;5127801;27;20985;-74
2020/12/22 06:26:12;;;;;;;1.10;1.10;;;10.20;99.90;;;;;;5125920;27;20458;-74
2020/12/22 06:33:19;;;;;;;1.13;1.03;;;10.30;99.90;;;;;;5116677;27;20524;-73
2020/12/22 06:36:07;;;;;;;2.70;1.40;;;10.30;99.90;;;;;;5126923;27;20450;-76
2020/12/22 06:38:53;;;;;;;1.20;1.07;;;10.30;99.90;;;;;;5127151;27;20532;-73
2020/12/22 06:41:27;;;;;;;1.37;1.27;;;10.30;99.90;;;;;;5122591;27;20484;-75
2020/12/22 06:43:55;;;;;;;1.40;1.30;;;10.30;99.90;;;;;;5128048;27;20442;-76
2020/12/22 06:46:40;;;;;;;0.90;0.90;;;10.40;99.90;;;;;;5129571;27;20434;-74
2020/12/22 06:49:07;;;;;;;0.87;0.87;;;10.40;99.90;;;;;;5129309;27;20494;-74
2020/12/22 06:51:36;;;;;;;1.70;1.30;;;10.40;99.90;;;;;;5127725;27;20493;-74
2020/12/22 06:54:04;;;;;;;1.10;1.10;;;10.50;99.90;;;;;;5126966;27;20540;-74
2020/12/22 06:56:44;;;;;;;1.27;1.10;;;10.50;99.90;;;;;;5127358;27;20463;-74
2020/12/22 06:59:11;;;;;;;1.60;0.90;;;10.50;99.90;;;;;;5128756;27;20461;-74
2020/12/22 07:01:39;;;;;;;0.90;0.90;;;10.50;99.90;;;;;;5125986;27;20439;-76
2020/12/22 07:04:16;;;;;;;0.80;0.80;;;10.50;99.90;;;;;;5127086;27;20455;-74
2020/12/22 07:06:49;;;;;;;1.40;0.90;;;10.50;99.90;;;;;;5128275;27;20566;-76
2020/12/22 07:09:18;;;;;;;0.90;0.90;;;10.60;99.90;;;;;;5124384;27;20466;-74
2020/12/22 07:11:45;;;;;;;0.70;0.70;;;10.60;99.40;;;;;;5123628;27;20510;-75
2020/12/22 07:14:15;;;;;;;0.90;0.90;;;10.70;99.50;;;;;;5122214;27;20438;-74
2020/12/22 07:16:53;;;;;;;1.93;0.90;;;10.60;98.70;;;;;;5125388;27;20543;-74
2020/12/22 07:19:28;;;;;;;1.67;1.00;;;10.70;98.00;;;;;;5121471;27;20454;-75
2020/12/22 07:21:57;;;;;;;1.47;1.20;;;10.70;97.70;;;;;;5126347;27;20441;-73
2020/12/22 07:24:25;;;;;;;1.77;1.20;;;10.70;97.50;;;;;;5123764;27;20970;-75
2020/12/22 07:26:51;;;;;;;1.40;1.00;;;10.80;96.70;;;;;;5127867;27;20473;-74
2020/12/22 07:29:18;;;;;;;0.70;0.70;;;10.80;96.30;;;;;;5117871;27;20486;-74
2020/12/22 07:31:48;;;;;;;1.50;0.80;;;10.90;95.70;;;;;;5124339;27;20547;-77
2020/12/22 07:34:19;;;;;;;1.27;0.80;;;10.90;95.30;;;;;;5124225;27;20474;-74
2020/12/22 07:36:46;;;;;;;2.00;1.03;;;10.90;95.10;;;;;;5125505;27;20447;-74
2020/12/22 07:39:18;;;;;;;1.00;1.00;;;11.00;95.00;;;;;;5123136;27;20835;-73
2020/12/22 07:41:45;;;;;;;0.97;0.90;;;11.00;94.80;;;;;;5127031;27;20438;-74
2020/12/22 07:44:14;;;;;;;0.90;0.90;;;11.00;94.20;;;;;;5121020;27;20916;-73
2020/12/22 07:46:43;;;;;;;0.90;0.90;;;11.00;94.10;;;;;;5127402;27;20554;-74
2020/12/22 07:49:11;;;;;;;1.13;1.07;;;11.10;93.90;;;;;;5128272;27;20454;-75
2020/12/22 07:51:41;;;;;;;1.30;1.20;;;11.10;93.80;;;;;;5130757;28;20461;-74
2020/12/22 07:54:08;;;;;;;0.90;0.80;;;11.10;93.80;;;;;;5129170;27;20588;-74
2020/12/22 07:56:41;;;;;;;1.30;0.80;;;11.10;93.60;;;;;;5129917;27;20823;-74
2020/12/22 07:59:10;;;;;;;1.10;0.90;;;11.20;93.30;;;;;;5126524;27;20539;-74
2020/12/22 08:01:43;;;;;;;0.60;0.60;;;11.20;93.20;;;;;;5129136;27;20458;-74
2020/12/22 08:04:13;;;;;;;1.20;1.10;;;11.30;93.40;;;;;;5129403;27;20438;-74
2020/12/22 08:06:41;;;;;;;2.50;1.13;;;11.20;93.70;;;;;;5131312;27;20491;-74
2020/12/22 08:09:08;;;;;;;1.30;0.93;;;11.20;94.40;;;;;;5132304;27;20445;-73
2020/12/22 08:11:36;;;;;;;1.17;0.80;;;11.30;94.40;;;;;;5122501;27;20477;-74
2020/12/22 08:14:04;;;;;;;2.60;0.87;;;11.30;94.10;;;;;;5125994;27;20861;-73
2020/12/22 08:16:34;;;;;;;1.63;1.10;;;11.30;94.10;;;;;;5129210;27;20447;-78
2020/12/22 08:19:04;;;;;;;1.53;1.00;;;11.40;94.10;;;;;;5135419;27;20488;-77
2020/12/22 08:21:33;;;;;;;1.17;0.90;;;11.40;94.00;;;;;;5136085;27;20448;-75
2020/12/22 08:24:01;;;;;;;1.30;1.20;;;11.30;94.40;;;;;;5136961;27;20468;-75
2020/12/22 08:26:28;;;;;;;0.80;0.80;;;11.30;95.00;;;;;;5139573;27;20473;-75
2020/12/22 08:28:56;;;;;;;3.20;1.03;;;11.30;95.40;;;;;;5134183;27;20451;-75
2020/12/22 08:31:28;;;;;;;0.97;0.80;;;11.30;96.80;;;;;;5131409;27;20504;-75
2020/12/22 08:33:59;;;;;;;0.90;0.90;;;11.20;98.00;;;;;;5132857;27;20469;-75
2020/12/22 08:36:29;;;;;;;0.93;0.80;;;11.20;99.90;;;;;;5132891;27;20534;-75
2020/12/22 08:39:19;;;;;;;2.60;0.80;;;11.20;99.90;;;;;;5130000;27;20456;-75
2020/12/22 08:41:47;;;;;;;1.13;1.00;;;11.20;99.90;;;;;;5133206;27;20442;-75
2020/12/22 08:44:15;;;;;;;1.23;1.13;;;11.10;99.90;;;;;;5129996;27;20447;-76
2020/12/22 08:46:43;;;;;;;2.27;1.40;;;11.10;99.90;;;;;;5130882;27;20448;-75
2020/12/22 08:49:14;;;;;;;1.87;1.70;;;11.10;99.90;;;;;;5127501;27;20493;-75
2020/12/22 08:51:41;;;;;;;2.50;1.30;;;11.20;99.90;;;;;;5128728;27;20846;-77
2020/12/22 08:54:08;;;;;;;1.40;1.30;;;11.20;99.90;;;;;;5135460;27;20454;-76
2020/12/22 08:56:36;;;;;;;1.17;0.87;;;11.20;99.90;;;;;;5137510;27;20459;-76
2020/12/22 08:59:07;;;;;;;1.20;1.10;;;11.20;99.90;;;;;;5140723;27;20482;-77
2020/12/22 09:01:42;;;;;;;1.47;1.00;;;11.30;99.90;;;;;;5133635;27;20580;-76
2020/12/22 09:04:10;;;;;;;1.27;1.17;;;11.30;99.90;;;;;;5133642;27;20454;-75
2020/12/22 09:06:38;;;;;;;0.90;0.80;;;11.40;99.90;;;;;;5137240;27;20445;-76
2020/12/22 09:09:06;;;;;;;0.93;0.90;;;11.40;99.00;;;;;;5131263;27;20448;-76
2020/12/22 09:11:33;;;;;;;10.33;1.40;;;11.50;98.60;;;;;;5127604;27;20481;-76
2020/12/22 09:14:11;;;;;;;1.30;0.90;;;11.50;98.10;;;;;;5127992;27;20491;-75
2020/12/22 09:16:54;;;;;;;1.40;1.03;;;11.50;97.40;;;;;;5129817;27;20447;-78
2020/12/22 09:19:28;;;;;;;2.27;1.30;;;11.70;96.70;;;;;;5128423;27;20450;-78
2020/12/22 09:22:00;;;;;;;1.47;0.90;;;11.70;95.50;;;;;;5131087;27;20525;-78
2020/12/22 09:24:27;;;;;;;0.57;0.57;;;11.80;95.00;;;;;;5121399;27;20535;-78
2020/12/22 09:26:58;;;;;;;1.10;1.00;;;11.90;95.00;;;;;;5127976;27;20960;-80
2020/12/22 09:29:25;;;;;;;0.70;0.70;;;11.90;94.40;;;;;;5129605;27;20967;-77
2020/12/22 09:31:53;;;;;;;1.23;1.10;;;12.10;93.80;;;;;;5130577;27;20470;-77
2020/12/22 09:34:23;;;;;;;1.53;0.73;;;12.10;93.40;;;;;;5129417;27;20506;-78
2020/12/22 09:36:52;;;;;;;0.80;0.80;;;12.10;93.30;;;;;;5131591;27;20961;-79
2020/12/22 09:39:19;;;;;;;1.13;0.70;;;12.10;93.20;;;;;;5129476;27;20481;-78
2020/12/22 09:41:45;;;;;;;1.17;1.00;;;12.20;92.90;;;;;;5130297;27;20448;-78
2020/12/22 09:44:12;;;;;;;1.87;1.10;;;12.20;92.70;;;;;;5128662;27;20442;-78
2020/12/22 09:46:39;;;;;;;1.53;0.60;;;12.10;92.90;;;;;;5137784;27;20535;-79
2020/12/22 09:49:07;;;;;;;1.27;0.80;;;12.10;93.20;;;;;;5125310;27;20454;-78
2020/12/22 09:51:33;;;;;;;1.27;1.17;;;12.10;93.10;;;;;;5125962;27;20456;-78
2020/12/22 09:54:00;;;;;;;1.30;1.20;;;12.10;93.90;;;;;;5129393;27;20480;-78
2020/12/22 09:56:31;;;;;;;1.27;0.87;;;12.20;93.80;;;;;;5130066;27;20442;-78
2020/12/22 09:58:58;;;;;;;0.73;0.60;;;12.20;93.30;;;;;;5130732;27;20439;-77
2020/12/22 10:01:25;;;;;;;1.97;1.10;;;12.30;92.90;;;;;;5126954;27;20570;-78
2020/12/22 10:03:53;;;;;;;0.80;0.80;;;12.40;93.20;;;;;;5120936;27;20967;-77
2020/12/22 10:06:22;;;;;;;3.00;1.00;;;12.40;93.00;;;;;;5129692;27;20509;-78
2020/12/22 10:08:49;;;;;;;1.27;0.80;;;12.50;93.30;;;;;;5131013;27;20813;-78
2020/12/22 10:11:17;;;;;;;2.13;0.80;;;12.40;93.20;;;;;;5129034;27;20481;-78
2020/12/22 10:13:48;;;;;;;0.70;0.70;;;12.40;93.20;;;;;;5130977;27;20508;-77
2020/12/22 10:16:18;;;;;;;1.30;0.70;;;12.30;94.00;;;;;;5128784;27;20489;-77
2020/12/22 10:18:45;;;;;;;1.23;0.90;;;12.20;95.50;;;;;;5116331;27;20450;-78
2020/12/22 10:21:13;;;;;;;1.23;0.60;;;12.10;96.20;;;;;;5127540;27;20469;-78
2020/12/22 10:23:42;;;;;;;1.20;0.90;;;12.00;96.80;;;;;;5128104;27;20545;-78
2020/12/22 10:26:11;;;;;;;1.57;0.87;;;12.00;97.30;;;;;;5129172;27;20441;-77
2020/12/22 10:28:41;;;;;;;1.17;0.80;;;12.00;97.90;;;;;;5124727;27;20550;-78
2020/12/22 10:31:15;;;;;;;1.57;1.30;;;12.00;98.10;;;;;;5122376;27;20498;-79
2020/12/22 10:33:42;;;;;;;0.73;0.70;;;11.90;98.20;;;;;;5121633;27;20971;-78
2020/12/22 10:36:12;;;;;;;1.23;1.13;;;12.00;97.60;;;;;;5125624;27;20450;-78
2020/12/22 10:38:40;;;;;;;1.43;0.63;;;12.10;97.00;;;;;;5133387;27;20466;-79
2020/12/22 10:41:07;;;;;;;1.40;0.73;;;12.10;96.50;;;;;;5130492;27;20450;-78
2020/12/22 10:43:34;;;;;;;0.60;0.60;;;12.20;96.00;;;;;;5129286;27;20940;-78
2020/12/22 10:46:02;;;;;;;1.27;0.90;;;12.20;95.00;;;;;;5129930;27;20449;-78
2020/12/22 10:48:30;;;;;;;1.27;0.90;;;12.20;95.10;;;;;;5128916;27;20450;-77
2020/12/22 10:51:00;;;;;;;1.07;0.60;;;12.30;94.50;;;;;;5128870;27;20810;-78
2020/12/22 10:53:26;;;;;;;0.80;0.80;;;12.30;94.00;;;;;;5127704;27;20455;-79
2020/12/22 10:55:54;;;;;;;1.20;1.10;;;12.40;93.70;;;;;;5133299;27;20443;-79
2020/12/22 10:58:21;;;;;;;1.00;0.80;;;12.50;93.40;;;;;;5130795;28;20468;-79
2020/12/22 11:00:48;;;;;;;2.03;1.20;;;12.60;92.60;;;;;;5124564;27;20446;-79
2020/12/22 11:03:19;;;;;;;0.90;0.90;;;12.80;92.10;;;;;;5131713;27;20461;-79
2020/12/22 11:06:08;;;;;;;0.90;0.80;;;12.80;91.60;;;;;;5130606;28;20495;-77
2020/12/22 11:08:41;;;;;;;1.10;0.90;;;12.90;91.50;;;;;;5133926;27;20456;-77
2020/12/22 11:11:09;;;;;;;1.10;1.00;;;12.80;91.30;;;;;;5144641;27;20560;-77
2020/12/22 11:13:36;;;;;;;1.50;0.77;;;12.80;91.30;;;;;;5143156;27;20449;-77
2020/12/22 11:16:04;;;;;;;0.70;0.70;;;12.90;91.10;;;;;;5132631;27;20921;-80
2020/12/22 11:18:32;;;;;;;0.87;0.73;;;12.80;90.90;;;;;;5128465;27;20442;-74
2020/12/22 11:20:58;;;;;;;1.30;0.70;;;12.90;90.80;;;;;;5127176;27;20446;-74
2020/12/22 11:23:25;;;;;;;0.67;0.67;;;13.00;90.50;;;;;;5124662;27;20545;-73
2020/12/22 11:25:51;;;;;;;1.07;0.80;;;13.00;90.40;;;;;;5122821;27;20522;-74
2020/12/22 11:28:18;;;;;;;0.90;0.90;;;12.90;90.40;;;;;;5124013;27;20467;-73
2020/12/22 11:30:45;;;;;;;2.27;1.60;;;12.90;90.40;;;;;;5121221;27;20472;-75
2020/12/22 11:33:16;;;;;;;1.00;0.80;;;13.00;90.40;;;;;;5121267;27;20462;-75
2020/12/22 11:35:42;;;;;;;1.13;1.00;;;12.90;90.30;;;;;;5129166;27;20460;-76
2020/12/22 11:38:09;;;;;;;0.90;0.60;;;13.00;90.30;;;;;;5127586;27;20450;-75
2020/12/22 11:40:35;;;;;;;0.83;0.83;;;13.00;90.20;;;;;;5130939;27;20467;-75
2020/12/22 11:43:02;;;;;;;0.73;0.60;;;13.00;90.10;;;;;;5129880;27;20558;-75
2020/12/22 11:45:29;;;;;;;1.20;0.90;;;13.00;90.10;;;;;;5130964;27;20450;-75
2020/12/22 11:47:58;;;;;;;1.00;0.90;;;12.90;90.10;;;;;;5125695;27;20465;-77
2020/12/22 11:50:29;;;;;;;0.97;0.90;;;12.80;90.20;;;;;;5132771;27;20517;-74
2020/12/22 11:52:56;;;;;;;0.83;0.60;;;12.90;90.30;;;;;;5128490;27;20526;-74
2020/12/22 11:55:24;;;;;;;1.00;0.60;;;12.80;90.40;;;;;;5127588;27;20446;-74
2020/12/22 11:57:51;;;;;;;1.33;0.40;;;12.80;90.50;;;;;;5126091;27;20461;-75
2020/12/22 12:00:21;;;;;;;1.67;0.50;;;12.80;90.40;;;;;;5126419;27;20781;-74
2020/12/22 12:02:48;;;;;;;0.70;0.50;;;12.70;90.50;;;;;;5130475;27;20456;-75
2020/12/22 12:05:15;;;;;;;1.00;0.80;;;12.80;90.60;;;;;;5127193;27;20452;-75
2020/12/22 12:07:41;;;;;;;0.80;0.70;;;12.90;90.60;;;;;;5127578;27;20976;-76
2020/12/22 12:10:07;;;;;;;2.00;0.77;;;12.90;90.40;;;;;;5127472;27;20449;-75
2020/12/22 12:12:34;;;;;;;0.97;0.77;;;12.90;90.40;;;;;;5129003;27;20533;-74
2020/12/22 12:15:01;;;;;;;0.80;0.80;;;13.00;90.30;;;;;;5129277;27;20464;-76
2020/12/22 12:17:28;;;;;;;0.90;0.73;;;13.10;90.20;;;;;;5132022;27;20482;-76
2020/12/22 12:19:55;;;;;;;0.70;0.70;;;13.10;90.00;;;;;;5128468;27;20511;-76
2020/12/22 12:22:21;;;;;;;0.80;0.80;;;13.10;89.70;;;;;;5127681;27;20451;-75
2020/12/22 12:24:50;;;;;;;1.27;0.90;;;13.10;89.60;;;;;;5127315;27;20470;-75
2020/12/22 12:27:16;;;;;;;1.50;0.77;;;13.10;89.50;;;;;;5130783;27;20475;-75
2020/12/22 12:29:43;;;;;;;0.60;0.60;;;13.00;89.60;;;;;;5125421;27;20434;-74
2020/12/22 12:32:09;;;;;;;0.60;0.60;;;13.00;89.90;;;;;;5128547;27;20487;-76
2020/12/22 12:34:36;;;;;;;1.37;0.67;;;12.90;90.00;;;;;;5133491;27;20472;-75
2020/12/22 12:37:06;;;;;;;0.50;0.50;;;12.90;90.10;;;;;;5134222;27;20971;-75
2020/12/22 12:39:34;;;;;;;0.97;0.80;;;12.80;90.30;;;;;;5132180;27;20448;-74
2020/12/22 12:42:00;;;;;;;0.77;0.60;;;12.70;90.40;;;;;;5132567;27;20457;-76
2020/12/22 12:44:27;;;;;;;0.53;0.53;;;12.70;90.40;;;;;;5132408;27;20476;-75
2020/12/22 12:46:55;;;;;;;0.83;0.73;;;12.80;90.60;;;;;;5126618;27;20451;-75
2020/12/22 12:49:27;;;;;;;0.50;0.50;;;12.80;90.50;;;;;;5131169;27;20482;-75
2020/12/22 12:51:53;;;;;;;2.60;0.80;;;12.80;90.50;;;;;;5126508;27;20553;-76
2020/12/22 12:54:20;;;;;;;0.80;0.70;;;12.80;90.50;;;;;;5129856;27;20458;-75
2020/12/22 12:56:50;;;;;;;0.90;0.67;;;12.80;90.50;;;;;;5123686;27;21044;-75